sensor_id;sensor_type;location;lat;lon;timestamp;P1;durP1;ratioP1;P2;durP2;ratioP2
33160;SDS011;19522;45.656;11.302;2024-01-07T00:02:25;3.28;;;1.85;;
33160;SDS011;19522;45.656;11.302;2024-01-07T00:04:51;3.60;;;1.98;;
33160;SDS011;19522;45.656;11.302;2024-01-07T00:07:16;2.47;;;1.17;;
33160;SDS011;19522;45.656;11.302;2024-01-07T00:09:42;1.45;;;0.80;;
33160;SDS011;19522;45.656;11.302;2024-01-07T00:12:07;1.77;;;1.00;;
33160;SDS011;19522;45.656;11.302;2024-01-07T00:14:33;2.30;;;0.90;;
33160;SDS011;19522;45.656;11.302;2024-01-07T00:16:58;2.22;;;1.13;;
33160;SDS011;19522;45.656;11.302;2024-01-07T00:19:24;1.77;;;1.08;;
33160;SDS011;19522;45.656;11.302;2024-01-07T00:21:50;2.70;;;1.45;;
33160;SDS011;19522;45.656;11.302;2024-01-07T00:24:15;2.97;;;1.80;;
33160;SDS011;19522;45.656;11.302;2024-01-07T00:26:41;1.52;;;0.88;;
33160;SDS011;19522;45.656;11.302;2024-01-07T00:29:06;1.90;;;1.02;;
33160;SDS011;19522;45.656;11.302;2024-01-07T00:31:32;1.02;;;0.75;;
33160;SDS011;19522;45.656;11.302;2024-01-07T00:33:57;2.30;;;1.23;;
33160;SDS011;19522;45.656;11.302;2024-01-07T00:36:23;0.90;;;0.70;;
33160;SDS011;19522;45.656;11.302;2024-01-07T00:38:48;1.75;;;1.38;;
33160;SDS011;19522;45.656;11.302;2024-01-07T00:41:14;1.83;;;1.27;;
33160;SDS011;19522;45.656;11.302;2024-01-07T00:43:39;1.98;;;1.17;;
33160;SDS011;19522;45.656;11.302;2024-01-07T00:46:05;2.90;;;0.90;;
33160;SDS011;19522;45.656;11.302;2024-01-07T00:48:31;1.55;;;0.90;;
33160;SDS011;19522;45.656;11.302;2024-01-07T00:50:57;2.55;;;0.80;;
33160;SDS011;19522;45.656;11.302;2024-01-07T00:53:22;1.20;;;0.68;;
33160;SDS011;19522;45.656;11.302;2024-01-07T00:55:48;2.03;;;1.13;;
33160;SDS011;19522;45.656;11.302;2024-01-07T00:58:13;0.80;;;0.70;;
33160;SDS011;19522;45.656;11.302;2024-01-07T01:00:39;0.95;;;0.70;;
33160;SDS011;19522;45.656;11.302;2024-01-07T01:03:04;0.82;;;0.70;;
33160;SDS011;19522;45.656;11.302;2024-01-07T01:05:33;0.88;;;0.65;;
33160;SDS011;19522;45.656;11.302;2024-01-07T01:07:58;1.02;;;0.60;;
33160;SDS011;19522;45.656;11.302;2024-01-07T01:10:24;0.90;;;0.70;;
33160;SDS011;19522;45.656;11.302;2024-01-07T01:12:50;1.27;;;0.93;;
33160;SDS011;19522;45.656;11.302;2024-01-07T01:15:17;1.00;;;0.70;;
33160;SDS011;19522;45.656;11.302;2024-01-07T01:17:43;1.02;;;0.60;;
33160;SDS011;19522;45.656;11.302;2024-01-07T01:20:08;0.90;;;0.60;;
33160;SDS011;19522;45.656;11.302;2024-01-07T01:22:34;0.90;;;0.55;;
33160;SDS011;19522;45.656;11.302;2024-01-07T01:25:00;0.90;;;0.70;;
33160;SDS011;19522;45.656;11.302;2024-01-07T01:27:26;0.90;;;0.70;;
33160;SDS011;19522;45.656;11.302;2024-01-07T01:29:51;1.38;;;0.73;;
33160;SDS011;19522;45.656;11.302;2024-01-07T01:32:17;0.95;;;0.70;;
33160;SDS011;19522;45.656;11.302;2024-01-07T01:34:42;0.82;;;0.60;;
33160;SDS011;19522;45.656;11.302;2024-01-07T01:37:08;0.50;;;0.50;;
33160;SDS011;19522;45.656;11.302;2024-01-07T01:39:34;0.88;;;0.40;;
33160;SDS011;19522;45.656;11.302;2024-01-07T01:42:00;1.10;;;0.43;;
33160;SDS011;19522;45.656;11.302;2024-01-07T01:44:25;0.40;;;0.40;;
33160;SDS011;19522;45.656;11.302;2024-01-07T01:46:53;0.50;;;0.50;;
33160;SDS011;19522;45.656;11.302;2024-01-07T01:49:19;0.95;;;0.60;;
33160;SDS011;19522;45.656;11.302;2024-01-07T01:51:45;1.05;;;0.50;;
33160;SDS011;19522;45.656;11.302;2024-01-07T01:54:11;0.88;;;0.52;;
33160;SDS011;19522;45.656;11.302;2024-01-07T01:56:37;0.65;;;0.55;;
33160;SDS011;19522;45.656;11.302;2024-01-07T01:59:03;0.60;;;0.50;;
33160;SDS011;19522;45.656;11.302;2024-01-07T02:01:29;1.52;;;0.40;;
33160;SDS011;19522;45.656;11.302;2024-01-07T02:03:56;0.80;;;0.40;;
33160;SDS011;19522;45.656;11.302;2024-01-07T02:06:24;3.30;;;0.60;;
33160;SDS011;19522;45.656;11.302;2024-01-07T02:08:50;2.35;;;0.93;;
33160;SDS011;19522;45.656;11.302;2024-01-07T02:11:20;0.55;;;0.50;;
33160;SDS011;19522;45.656;11.302;2024-01-07T02:13:47;0.43;;;0.43;;
33160;SDS011;19522;45.656;11.302;2024-01-07T02:16:13;1.52;;;1.25;;
33160;SDS011;19522;45.656;11.302;2024-01-07T02:18:43;0.40;;;0.40;;
33160;SDS011;19522;45.656;11.302;2024-01-07T02:21:09;0.50;;;0.40;;
33160;SDS011;19522;45.656;11.302;2024-01-07T02:23:35;0.70;;;0.50;;
33160;SDS011;19522;45.656;11.302;2024-01-07T02:26:02;0.60;;;0.50;;
33160;SDS011;19522;45.656;11.302;2024-01-07T02:28:28;0.50;;;0.43;;
33160;SDS011;19522;45.656;11.302;2024-01-07T02:30:54;0.40;;;0.40;;
33160;SDS011;19522;45.656;11.302;2024-01-07T02:33:19;1.23;;;0.52;;
33160;SDS011;19522;45.656;11.302;2024-01-07T02:35:44;0.98;;;0.60;;
33160;SDS011;19522;45.656;11.302;2024-01-07T02:38:10;1.35;;;0.60;;
33160;SDS011;19522;45.656;11.302;2024-01-07T02:40:35;0.55;;;0.50;;
33160;SDS011;19522;45.656;11.302;2024-01-07T02:43:01;0.50;;;0.50;;
33160;SDS011;19522;45.656;11.302;2024-01-07T02:45:27;0.50;;;0.50;;
33160;SDS011;19522;45.656;11.302;2024-01-07T02:48:05;0.50;;;0.50;;
33160;SDS011;19522;45.656;11.302;2024-01-07T02:50:34;0.60;;;0.40;;
33160;SDS011;19522;45.656;11.302;2024-01-07T02:52:59;1.30;;;0.55;;
33160;SDS011;19522;45.656;11.302;2024-01-07T02:55:25;1.45;;;0.70;;
33160;SDS011;19522;45.656;11.302;2024-01-07T02:57:50;0.75;;;0.40;;
33160;SDS011;19522;45.656;11.302;2024-01-07T03:00:16;0.82;;;0.50;;
33160;SDS011;19522;45.656;11.302;2024-01-07T03:02:41;0.32;;;0.32;;
33160;SDS011;19522;45.656;11.302;2024-01-07T03:05:07;0.47;;;0.40;;
33160;SDS011;19522;45.656;11.302;2024-01-07T03:07:33;0.40;;;0.40;;
33160;SDS011;19522;45.656;11.302;2024-01-07T03:10:01;0.68;;;0.40;;
33160;SDS011;19522;45.656;11.302;2024-01-07T03:12:27;0.45;;;0.45;;
33160;SDS011;19522;45.656;11.302;2024-01-07T03:14:52;0.38;;;0.38;;
33160;SDS011;19522;45.656;11.302;2024-01-07T03:17:21;0.30;;;0.30;;
33160;SDS011;19522;45.656;11.302;2024-01-07T03:19:47;0.80;;;0.40;;
33160;SDS011;19522;45.656;11.302;2024-01-07T03:22:13;0.40;;;0.40;;
33160;SDS011;19522;45.656;11.302;2024-01-07T03:24:38;0.85;;;0.40;;
33160;SDS011;19522;45.656;11.302;2024-01-07T03:27:04;0.40;;;0.40;;
33160;SDS011;19522;45.656;11.302;2024-01-07T03:29:29;0.40;;;0.40;;
33160;SDS011;19522;45.656;11.302;2024-01-07T03:31:55;0.70;;;0.50;;
33160;SDS011;19522;45.656;11.302;2024-01-07T03:34:20;0.43;;;0.40;;
33160;SDS011;19522;45.656;11.302;2024-01-07T03:36:46;1.77;;;0.60;;
33160;SDS011;19522;45.656;11.302;2024-01-07T03:39:11;1.92;;;0.60;;
33160;SDS011;19522;45.656;11.302;2024-01-07T03:41:37;1.13;;;0.50;;
33160;SDS011;19522;45.656;11.302;2024-01-07T03:44:03;1.27;;;0.60;;
33160;SDS011;19522;45.656;11.302;2024-01-07T03:46:28;0.80;;;0.50;;
33160;SDS011;19522;45.656;11.302;2024-01-07T03:48:54;1.40;;;0.70;;
33160;SDS011;19522;45.656;11.302;2024-01-07T03:51:19;0.77;;;0.60;;
33160;SDS011;19522;45.656;11.302;2024-01-07T03:53:48;1.98;;;0.50;;
33160;SDS011;19522;45.656;11.302;2024-01-07T03:56:13;0.50;;;0.50;;
33160;SDS011;19522;45.656;11.302;2024-01-07T03:58:38;0.63;;;0.50;;
33160;SDS011;19522;45.656;11.302;2024-01-07T04:01:04;0.40;;;0.40;;
33160;SDS011;19522;45.656;11.302;2024-01-07T04:03:30;0.40;;;0.40;;
33160;SDS011;19522;45.656;11.302;2024-01-07T04:05:55;0.57;;;0.40;;
33160;SDS011;19522;45.656;11.302;2024-01-07T04:08:21;0.40;;;0.40;;
33160;SDS011;19522;45.656;11.302;2024-01-07T04:10:46;0.98;;;0.40;;
33160;SDS011;19522;45.656;11.302;2024-01-07T04:13:12;0.80;;;0.50;;
33160;SDS011;19522;45.656;11.302;2024-01-07T04:15:38;0.50;;;0.32;;
33160;SDS011;19522;45.656;11.302;2024-01-07T04:18:04;1.00;;;0.60;;
33160;SDS011;19522;45.656;11.302;2024-01-07T04:20:30;0.50;;;0.50;;
33160;SDS011;19522;45.656;11.302;2024-01-07T04:22:58;1.02;;;0.57;;
33160;SDS011;19522;45.656;11.302;2024-01-07T04:25:24;0.40;;;0.40;;
33160;SDS011;19522;45.656;11.302;2024-01-07T04:27:49;0.40;;;0.40;;
33160;SDS011;19522;45.656;11.302;2024-01-07T04:30:15;1.20;;;0.60;;
33160;SDS011;19522;45.656;11.302;2024-01-07T04:32:41;0.63;;;0.40;;
33160;SDS011;19522;45.656;11.302;2024-01-07T04:35:06;0.50;;;0.40;;
33160;SDS011;19522;45.656;11.302;2024-01-07T04:37:35;0.40;;;0.35;;
33160;SDS011;19522;45.656;11.302;2024-01-07T04:40:03;0.30;;;0.30;;
33160;SDS011;19522;45.656;11.302;2024-01-07T04:42:29;0.30;;;0.30;;
33160;SDS011;19522;45.656;11.302;2024-01-07T04:44:55;0.47;;;0.47;;
33160;SDS011;19522;45.656;11.302;2024-01-07T04:47:33;1.30;;;0.50;;
33160;SDS011;19522;45.656;11.302;2024-01-07T04:50:02;0.40;;;0.40;;
33160;SDS011;19522;45.656;11.302;2024-01-07T04:52:28;0.63;;;0.50;;
33160;SDS011;19522;45.656;11.302;2024-01-07T04:54:54;0.45;;;0.40;;
33160;SDS011;19522;45.656;11.302;2024-01-07T04:57:20;0.50;;;0.40;;
33160;SDS011;19522;45.656;11.302;2024-01-07T04:59:46;1.15;;;0.70;;
33160;SDS011;19522;45.656;11.302;2024-01-07T05:02:12;0.40;;;0.40;;
33160;SDS011;19522;45.656;11.302;2024-01-07T05:04:38;0.57;;;0.50;;
33160;SDS011;19522;45.656;11.302;2024-01-07T05:07:03;0.40;;;0.40;;
33160;SDS011;19522;45.656;11.302;2024-01-07T05:09:29;0.40;;;0.40;;
33160;SDS011;19522;45.656;11.302;2024-01-07T05:11:55;0.60;;;0.60;;
33160;SDS011;19522;45.656;11.302;2024-01-07T05:14:20;0.40;;;0.40;;
33160;SDS011;19522;45.656;11.302;2024-01-07T05:16:47;0.45;;;0.45;;
33160;SDS011;19522;45.656;11.302;2024-01-07T05:19:13;0.40;;;0.40;;
33160;SDS011;19522;45.656;11.302;2024-01-07T05:21:38;0.63;;;0.40;;
33160;SDS011;19522;45.656;11.302;2024-01-07T05:24:04;2.60;;;0.40;;
33160;SDS011;19522;45.656;11.302;2024-01-07T05:26:30;0.50;;;0.50;;
33160;SDS011;19522;45.656;11.302;2024-01-07T05:28:55;0.63;;;0.40;;
33160;SDS011;19522;45.656;11.302;2024-01-07T05:31:21;0.82;;;0.52;;
33160;SDS011;19522;45.656;11.302;2024-01-07T05:33:46;3.55;;;1.90;;
33160;SDS011;19522;45.656;11.302;2024-01-07T05:36:15;1.00;;;0.57;;
33160;SDS011;19522;45.656;11.302;2024-01-07T05:38:43;0.40;;;0.40;;
33160;SDS011;19522;45.656;11.302;2024-01-07T05:41:12;1.05;;;0.40;;
33160;SDS011;19522;45.656;11.302;2024-01-07T05:43:37;0.30;;;0.30;;
33160;SDS011;19522;45.656;11.302;2024-01-07T05:46:03;0.50;;;0.50;;
33160;SDS011;19522;45.656;11.302;2024-01-07T05:48:28;0.40;;;0.40;;
33160;SDS011;19522;45.656;11.302;2024-01-07T05:50:54;0.80;;;0.50;;
33160;SDS011;19522;45.656;11.302;2024-01-07T05:53:19;0.50;;;0.50;;
33160;SDS011;19522;45.656;11.302;2024-01-07T05:55:45;0.50;;;0.50;;
33160;SDS011;19522;45.656;11.302;2024-01-07T05:58:10;1.60;;;1.20;;
33160;SDS011;19522;45.656;11.302;2024-01-07T06:00:36;4.30;;;2.97;;
33160;SDS011;19522;45.656;11.302;2024-01-07T06:03:03;4.35;;;1.73;;
33160;SDS011;19522;45.656;11.302;2024-01-07T06:05:29;2.08;;;1.23;;
33160;SDS011;19522;45.656;11.302;2024-01-07T06:07:57;3.10;;;1.10;;
33160;SDS011;19522;45.656;11.302;2024-01-07T06:10:23;1.55;;;1.00;;
33160;SDS011;19522;45.656;11.302;2024-01-07T06:12:52;1.00;;;0.73;;
33160;SDS011;19522;45.656;11.302;2024-01-07T06:15:18;0.98;;;0.77;;
33160;SDS011;19522;45.656;11.302;2024-01-07T06:17:43;1.05;;;0.70;;
33160;SDS011;19522;45.656;11.302;2024-01-07T06:20:11;1.05;;;0.80;;
33160;SDS011;19522;45.656;11.302;2024-01-07T06:22:36;0.95;;;0.68;;
33160;SDS011;19522;45.656;11.302;2024-01-07T06:25:02;0.85;;;0.75;;
33160;SDS011;19522;45.656;11.302;2024-01-07T06:27:27;0.98;;;0.80;;
33160;SDS011;19522;45.656;11.302;2024-01-07T06:29:53;1.17;;;0.75;;
33160;SDS011;19522;45.656;11.302;2024-01-07T06:32:18;1.83;;;1.40;;
33160;SDS011;19522;45.656;11.302;2024-01-07T06:34:44;1.05;;;0.88;;
33160;SDS011;19522;45.656;11.302;2024-01-07T06:37:10;0.95;;;0.88;;
33160;SDS011;19522;45.656;11.302;2024-01-07T06:39:35;2.10;;;1.20;;
33160;SDS011;19522;45.656;11.302;2024-01-07T06:42:01;1.42;;;0.88;;
33160;SDS011;19522;45.656;11.302;2024-01-07T06:44:26;0.93;;;0.70;;
33160;SDS011;19522;45.656;11.302;2024-01-07T06:46:52;1.45;;;0.73;;
33160;SDS011;19522;45.656;11.302;2024-01-07T06:49:17;2.35;;;1.10;;
33160;SDS011;19522;45.656;11.302;2024-01-07T06:51:43;1.48;;;1.00;;
33160;SDS011;19522;45.656;11.302;2024-01-07T06:54:08;2.50;;;1.90;;
33160;SDS011;19522;45.656;11.302;2024-01-07T06:56:34;3.65;;;2.10;;
33160;SDS011;19522;45.656;11.302;2024-01-07T06:59:02;1.73;;;1.27;;
33160;SDS011;19522;45.656;11.302;2024-01-07T07:01:27;1.35;;;0.90;;
33160;SDS011;19522;45.656;11.302;2024-01-07T07:03:53;1.83;;;1.15;;
33160;SDS011;19522;45.656;11.302;2024-01-07T07:06:18;1.70;;;1.15;;
33160;SDS011;19522;45.656;11.302;2024-01-07T07:08:45;1.75;;;1.00;;
33160;SDS011;19522;45.656;11.302;2024-01-07T07:11:13;1.33;;;1.10;;
33160;SDS011;19522;45.656;11.302;2024-01-07T07:13:38;1.80;;;1.20;;
33160;SDS011;19522;45.656;11.302;2024-01-07T07:16:04;2.38;;;1.02;;
33160;SDS011;19522;45.656;11.302;2024-01-07T07:18:30;1.50;;;1.20;;
33160;SDS011;19522;45.656;11.302;2024-01-07T07:20:56;1.60;;;1.35;;
33160;SDS011;19522;45.656;11.302;2024-01-07T07:23:21;1.13;;;1.00;;
33160;SDS011;19522;45.656;11.302;2024-01-07T07:25:47;3.25;;;1.27;;
33160;SDS011;19522;45.656;11.302;2024-01-07T07:28:12;1.90;;;1.38;;
33160;SDS011;19522;45.656;11.302;2024-01-07T07:30:38;1.60;;;1.30;;
33160;SDS011;19522;45.656;11.302;2024-01-07T07:33:03;1.92;;;1.70;;
33160;SDS011;19522;45.656;11.302;2024-01-07T07:35:29;3.05;;;2.10;;
33160;SDS011;19522;45.656;11.302;2024-01-07T07:37:55;2.42;;;1.67;;
33160;SDS011;19522;45.656;11.302;2024-01-07T07:40:20;5.65;;;3.78;;
33160;SDS011;19522;45.656;11.302;2024-01-07T07:42:46;5.15;;;4.18;;
33160;SDS011;19522;45.656;11.302;2024-01-07T07:45:11;6.40;;;5.80;;
33160;SDS011;19522;45.656;11.302;2024-01-07T07:47:37;6.10;;;5.50;;
33160;SDS011;19522;45.656;11.302;2024-01-07T07:50:05;10.55;;;8.70;;
33160;SDS011;19522;45.656;11.302;2024-01-07T07:52:31;5.75;;;5.15;;
33160;SDS011;19522;45.656;11.302;2024-01-07T07:54:57;3.38;;;2.40;;
33160;SDS011;19522;45.656;11.302;2024-01-07T07:57:23;1.92;;;1.70;;
33160;SDS011;19522;45.656;11.302;2024-01-07T07:59:50;2.15;;;1.67;;
33160;SDS011;19522;45.656;11.302;2024-01-07T08:02:16;2.30;;;1.70;;
33160;SDS011;19522;45.656;11.302;2024-01-07T08:04:42;2.40;;;1.65;;
33160;SDS011;19522;45.656;11.302;2024-01-07T08:07:08;3.60;;;2.50;;
33160;SDS011;19522;45.656;11.302;2024-01-07T08:09:34;2.63;;;1.73;;
33160;SDS011;19522;45.656;11.302;2024-01-07T08:12:03;4.47;;;2.65;;
33160;SDS011;19522;45.656;11.302;2024-01-07T08:14:29;3.17;;;2.50;;
33160;SDS011;19522;45.656;11.302;2024-01-07T08:16:55;6.97;;;5.78;;
33160;SDS011;19522;45.656;11.302;2024-01-07T08:22:05;3.33;;;2.10;;
33160;SDS011;19522;45.656;11.302;2024-01-07T08:24:34;3.15;;;1.92;;
33160;SDS011;19522;45.656;11.302;2024-01-07T08:27:01;3.25;;;2.47;;
33160;SDS011;19522;45.656;11.302;2024-01-07T08:29:28;6.55;;;4.43;;
33160;SDS011;19522;45.656;11.302;2024-01-07T08:31:53;7.60;;;4.20;;
33160;SDS011;19522;45.656;11.302;2024-01-07T08:34:19;6.53;;;4.72;;
33160;SDS011;19522;45.656;11.302;2024-01-07T08:36:44;3.25;;;2.40;;
33160;SDS011;19522;45.656;11.302;2024-01-07T08:39:09;3.70;;;2.38;;
33160;SDS011;19522;45.656;11.302;2024-01-07T08:41:36;3.63;;;2.65;;
33160;SDS011;19522;45.656;11.302;2024-01-07T08:44:01;3.45;;;2.90;;
33160;SDS011;19522;45.656;11.302;2024-01-07T08:46:27;4.32;;;2.88;;
33160;SDS011;19522;45.656;11.302;2024-01-07T08:48:52;3.47;;;2.33;;
33160;SDS011;19522;45.656;11.302;2024-01-07T08:51:18;3.95;;;2.33;;
33160;SDS011;19522;45.656;11.302;2024-01-07T08:53:43;2.60;;;1.52;;
33160;SDS011;19522;45.656;11.302;2024-01-07T08:56:09;5.22;;;2.45;;
33160;SDS011;19522;45.656;11.302;2024-01-07T08:58:34;3.53;;;2.10;;
33160;SDS011;19522;45.656;11.302;2024-01-07T09:01:00;3.10;;;1.95;;
33160;SDS011;19522;45.656;11.302;2024-01-07T09:03:26;2.53;;;1.75;;
33160;SDS011;19522;45.656;11.302;2024-01-07T09:05:51;3.22;;;2.30;;
33160;SDS011;19522;45.656;11.302;2024-01-07T09:08:17;4.55;;;3.05;;
33160;SDS011;19522;45.656;11.302;2024-01-07T09:10:42;3.38;;;2.63;;
33160;SDS011;19522;45.656;11.302;2024-01-07T09:13:08;3.33;;;2.15;;
33160;SDS011;19522;45.656;11.302;2024-01-07T09:15:34;3.42;;;2.20;;
33160;SDS011;19522;45.656;11.302;2024-01-07T09:17:59;5.32;;;2.67;;
33160;SDS011;19522;45.656;11.302;2024-01-07T09:20:25;3.08;;;2.25;;
33160;SDS011;19522;45.656;11.302;2024-01-07T09:22:50;3.65;;;2.38;;
33160;SDS011;19522;45.656;11.302;2024-01-07T09:25:16;3.35;;;2.45;;
33160;SDS011;19522;45.656;11.302;2024-01-07T09:27:41;5.45;;;3.03;;
33160;SDS011;19522;45.656;11.302;2024-01-07T09:30:08;3.50;;;2.65;;
33160;SDS011;19522;45.656;11.302;2024-01-07T09:32:36;3.30;;;2.60;;
33160;SDS011;19522;45.656;11.302;2024-01-07T09:35:01;3.28;;;2.38;;
33160;SDS011;19522;45.656;11.302;2024-01-07T09:37:27;2.95;;;1.88;;
33160;SDS011;19522;45.656;11.302;2024-01-07T09:39:52;3.53;;;2.63;;
33160;SDS011;19522;45.656;11.302;2024-01-07T09:42:19;2.67;;;2.05;;
33160;SDS011;19522;45.656;11.302;2024-01-07T09:44:44;2.83;;;1.85;;
33160;SDS011;19522;45.656;11.302;2024-01-07T09:47:11;3.13;;;2.05;;
33160;SDS011;19522;45.656;11.302;2024-01-07T09:49:38;8.10;;;4.97;;
33160;SDS011;19522;45.656;11.302;2024-01-07T09:52:04;12.77;;;7.80;;
33160;SDS011;19522;45.656;11.302;2024-01-07T09:54:31;9.50;;;6.13;;
33160;SDS011;19522;45.656;11.302;2024-01-07T09:57:02;6.63;;;4.13;;
33160;SDS011;19522;45.656;11.302;2024-01-07T09:59:29;5.55;;;3.30;;
33160;SDS011;19522;45.656;11.302;2024-01-07T10:01:58;6.47;;;3.75;;
33160;SDS011;19522;45.656;11.302;2024-01-07T10:04:24;5.10;;;4.13;;
33160;SDS011;19522;45.656;11.302;2024-01-07T10:06:50;3.10;;;2.63;;
33160;SDS011;19522;45.656;11.302;2024-01-07T10:09:18;6.13;;;3.83;;
33160;SDS011;19522;45.656;11.302;2024-01-07T10:11:46;5.63;;;4.05;;
33160;SDS011;19522;45.656;11.302;2024-01-07T10:14:12;4.60;;;2.70;;
33160;SDS011;19522;45.656;11.302;2024-01-07T10:16:38;3.20;;;2.35;;
33160;SDS011;19522;45.656;11.302;2024-01-07T10:19:04;2.72;;;2.30;;
33160;SDS011;19522;45.656;11.302;2024-01-07T10:21:29;3.90;;;3.00;;
33160;SDS011;19522;45.656;11.302;2024-01-07T10:24:11;4.47;;;2.90;;
33160;SDS011;19522;45.656;11.302;2024-01-07T10:26:40;5.60;;;3.65;;
33160;SDS011;19522;45.656;11.302;2024-01-07T10:29:06;6.88;;;3.80;;
33160;SDS011;19522;45.656;11.302;2024-01-07T10:31:37;5.60;;;3.67;;
33160;SDS011;19522;45.656;11.302;2024-01-07T10:34:07;7.97;;;5.00;;
33160;SDS011;19522;45.656;11.302;2024-01-07T10:36:33;5.20;;;2.92;;
33160;SDS011;19522;45.656;11.302;2024-01-07T10:38:59;56.25;;;25.48;;
33160;SDS011;19522;45.656;11.302;2024-01-07T10:41:25;16.00;;;9.35;;
33160;SDS011;19522;45.656;11.302;2024-01-07T10:43:51;4.30;;;2.90;;
33160;SDS011;19522;45.656;11.302;2024-01-07T10:46:17;5.38;;;3.58;;
33160;SDS011;19522;45.656;11.302;2024-01-07T10:51:28;4.30;;;3.05;;
33160;SDS011;19522;45.656;11.302;2024-01-07T10:53:56;2.50;;;1.88;;
33160;SDS011;19522;45.656;11.302;2024-01-07T10:56:22;3.55;;;2.38;;
33160;SDS011;19522;45.656;11.302;2024-01-07T10:58:52;2.55;;;1.95;;
33160;SDS011;19522;45.656;11.302;2024-01-07T11:01:19;2.47;;;1.98;;
33160;SDS011;19522;45.656;11.302;2024-01-07T11:06:21;2.63;;;1.83;;
33160;SDS011;19522;45.656;11.302;2024-01-07T11:11:41;3.60;;;2.22;;
33160;SDS011;19522;45.656;11.302;2024-01-07T11:17:08;2.55;;;1.90;;
33160;SDS011;19522;45.656;11.302;2024-01-07T11:19:36;4.50;;;2.17;;
33160;SDS011;19522;45.656;11.302;2024-01-07T11:24:53;2.92;;;2.05;;
33160;SDS011;19522;45.656;11.302;2024-01-07T11:27:25;3.67;;;2.45;;
33160;SDS011;19522;45.656;11.302;2024-01-07T11:30:03;5.00;;;3.08;;
33160;SDS011;19522;45.656;11.302;2024-01-07T11:32:44;5.30;;;3.50;;
33160;SDS011;19522;45.656;11.302;2024-01-07T11:35:12;7.00;;;4.07;;
33160;SDS011;19522;45.656;11.302;2024-01-07T11:37:38;5.93;;;3.85;;
33160;SDS011;19522;45.656;11.302;2024-01-07T11:40:04;4.18;;;2.60;;
33160;SDS011;19522;45.656;11.302;2024-01-07T11:42:31;3.22;;;2.10;;
33160;SDS011;19522;45.656;11.302;2024-01-07T11:44:57;3.63;;;2.58;;
33160;SDS011;19522;45.656;11.302;2024-01-07T11:47:24;3.03;;;2.60;;
33160;SDS011;19522;45.656;11.302;2024-01-07T11:49:53;2.65;;;1.95;;
33160;SDS011;19522;45.656;11.302;2024-01-07T11:52:19;2.70;;;1.95;;
33160;SDS011;19522;45.656;11.302;2024-01-07T11:54:45;3.40;;;2.55;;
33160;SDS011;19522;45.656;11.302;2024-01-07T11:57:12;4.03;;;2.10;;
33160;SDS011;19522;45.656;11.302;2024-01-07T11:59:38;3.55;;;2.20;;
33160;SDS011;19522;45.656;11.302;2024-01-07T12:02:04;3.10;;;2.08;;
33160;SDS011;19522;45.656;11.302;2024-01-07T12:04:33;2.65;;;2.00;;
33160;SDS011;19522;45.656;11.302;2024-01-07T12:06:59;1.90;;;1.70;;
33160;SDS011;19522;45.656;11.302;2024-01-07T12:09:25;3.45;;;2.08;;
33160;SDS011;19522;45.656;11.302;2024-01-07T12:11:51;3.22;;;2.08;;
33160;SDS011;19522;45.656;11.302;2024-01-07T12:14:17;2.53;;;1.88;;
33160;SDS011;19522;45.656;11.302;2024-01-07T12:16:43;4.03;;;2.55;;
33160;SDS011;19522;45.656;11.302;2024-01-07T12:19:09;4.10;;;2.53;;
33160;SDS011;19522;45.656;11.302;2024-01-07T12:21:35;4.22;;;2.50;;
33160;SDS011;19522;45.656;11.302;2024-01-07T12:24:01;3.05;;;1.90;;
33160;SDS011;19522;45.656;11.302;2024-01-07T12:26:27;3.20;;;2.10;;
33160;SDS011;19522;45.656;11.302;2024-01-07T12:28:59;2.30;;;1.70;;
33160;SDS011;19522;45.656;11.302;2024-01-07T12:31:32;3.40;;;2.03;;
33160;SDS011;19522;45.656;11.302;2024-01-07T12:33:58;4.40;;;2.83;;
33160;SDS011;19522;45.656;11.302;2024-01-07T12:36:25;3.58;;;2.33;;
33160;SDS011;19522;45.656;11.302;2024-01-07T12:38:51;4.13;;;2.05;;
33160;SDS011;19522;45.656;11.302;2024-01-07T12:41:19;5.00;;;2.72;;
33160;SDS011;19522;45.656;11.302;2024-01-07T12:43:46;6.32;;;3.70;;
33160;SDS011;19522;45.656;11.302;2024-01-07T12:46:11;4.30;;;2.53;;
33160;SDS011;19522;45.656;11.302;2024-01-07T12:48:37;3.38;;;2.35;;
33160;SDS011;19522;45.656;11.302;2024-01-07T12:51:02;3.08;;;2.25;;
33160;SDS011;19522;45.656;11.302;2024-01-07T12:53:28;2.75;;;2.10;;
33160;SDS011;19522;45.656;11.302;2024-01-07T12:55:54;3.60;;;2.30;;
33160;SDS011;19522;45.656;11.302;2024-01-07T12:58:19;4.20;;;2.80;;
33160;SDS011;19522;45.656;11.302;2024-01-07T13:00:46;3.38;;;2.42;;
33160;SDS011;19522;45.656;11.302;2024-01-07T13:03:11;3.17;;;2.38;;
33160;SDS011;19522;45.656;11.302;2024-01-07T13:05:44;2.92;;;2.03;;
33160;SDS011;19522;45.656;11.302;2024-01-07T13:08:11;3.75;;;2.33;;
33160;SDS011;19522;45.656;11.302;2024-01-07T13:10:38;3.92;;;2.58;;
33160;SDS011;19522;45.656;11.302;2024-01-07T13:13:07;4.22;;;3.00;;
33160;SDS011;19522;45.656;11.302;2024-01-07T13:15:35;3.95;;;2.50;;
33160;SDS011;19522;45.656;11.302;2024-01-07T13:18:00;4.95;;;2.45;;
33160;SDS011;19522;45.656;11.302;2024-01-07T13:20:26;3.95;;;2.20;;
33160;SDS011;19522;45.656;11.302;2024-01-07T13:22:51;3.47;;;2.13;;
33160;SDS011;19522;45.656;11.302;2024-01-07T13:25:17;4.68;;;2.70;;
33160;SDS011;19522;45.656;11.302;2024-01-07T13:27:42;3.47;;;2.50;;
33160;SDS011;19522;45.656;11.302;2024-01-07T13:30:08;4.47;;;2.92;;
33160;SDS011;19522;45.656;11.302;2024-01-07T13:32:34;4.88;;;2.53;;
33160;SDS011;19522;45.656;11.302;2024-01-07T13:35:04;3.80;;;2.80;;
33160;SDS011;19522;45.656;11.302;2024-01-07T13:37:31;3.60;;;2.88;;
33160;SDS011;19522;45.656;11.302;2024-01-07T13:39:56;3.25;;;2.40;;
33160;SDS011;19522;45.656;11.302;2024-01-07T13:42:22;3.15;;;2.40;;
33160;SDS011;19522;45.656;11.302;2024-01-07T13:44:47;4.10;;;2.42;;
33160;SDS011;19522;45.656;11.302;2024-01-07T13:47:13;4.03;;;2.50;;
33160;SDS011;19522;45.656;11.302;2024-01-07T13:49:42;5.68;;;3.63;;
33160;SDS011;19522;45.656;11.302;2024-01-07T13:52:10;4.88;;;2.83;;
33160;SDS011;19522;45.656;11.302;2024-01-07T13:54:35;4.13;;;2.83;;
33160;SDS011;19522;45.656;11.302;2024-01-07T13:57:01;4.82;;;3.08;;
33160;SDS011;19522;45.656;11.302;2024-01-07T13:59:26;4.05;;;2.90;;
33160;SDS011;19522;45.656;11.302;2024-01-07T14:01:53;3.20;;;2.20;;
33160;SDS011;19522;45.656;11.302;2024-01-07T14:04:18;4.72;;;3.22;;
33160;SDS011;19522;45.656;11.302;2024-01-07T14:06:44;4.32;;;2.83;;
33160;SDS011;19522;45.656;11.302;2024-01-07T14:09:10;3.78;;;2.55;;
33160;SDS011;19522;45.656;11.302;2024-01-07T14:11:36;4.75;;;2.90;;
33160;SDS011;19522;45.656;11.302;2024-01-07T14:14:02;4.78;;;2.95;;
33160;SDS011;19522;45.656;11.302;2024-01-07T14:16:27;4.22;;;3.15;;
33160;SDS011;19522;45.656;11.302;2024-01-07T14:18:53;5.25;;;3.58;;
33160;SDS011;19522;45.656;11.302;2024-01-07T14:21:19;8.35;;;4.63;;
33160;SDS011;19522;45.656;11.302;2024-01-07T14:23:44;6.90;;;3.67;;
33160;SDS011;19522;45.656;11.302;2024-01-07T14:26:10;7.68;;;3.67;;
33160;SDS011;19522;45.656;11.302;2024-01-07T14:28:35;6.22;;;3.97;;
33160;SDS011;19522;45.656;11.302;2024-01-07T14:31:01;6.38;;;3.63;;
33160;SDS011;19522;45.656;11.302;2024-01-07T14:33:28;5.68;;;3.33;;
33160;SDS011;19522;45.656;11.302;2024-01-07T14:35:54;4.82;;;3.22;;
33160;SDS011;19522;45.656;11.302;2024-01-07T14:38:19;5.22;;;3.03;;
33160;SDS011;19522;45.656;11.302;2024-01-07T14:40:45;3.65;;;2.90;;
33160;SDS011;19522;45.656;11.302;2024-01-07T14:43:11;4.18;;;3.00;;
33160;SDS011;19522;45.656;11.302;2024-01-07T14:45:38;8.25;;;5.05;;